createdAt,value
2017-07-21T00:02:18.977Z,17.50
2017-07-21T00:04:47.330Z,17.50
2017-07-21T00:07:15.687Z,17.00
2017-07-21T00:09:44.002Z,17.20
2017-07-21T00:12:12.366Z,17.40
2017-07-21T00:14:40.697Z,17.60
2017-07-21T00:17:09.048Z,17.60
2017-07-21T00:19:37.534Z,17.50
2017-07-21T00:22:05.868Z,17.60
2017-07-21T00:24:34.190Z,17.60
2017-07-21T00:27:02.556Z,17.50
2017-07-21T00:29:30.894Z,17.60
2017-07-21T00:31:59.231Z,17.50
2017-07-21T00:34:27.574Z,17.60
2017-07-21T00:36:55.896Z,17.50
2017-07-21T00:39:24.245Z,17.30
2017-07-21T00:41:52.564Z,17.40
2017-07-21T00:44:20.907Z,17.50
2017-07-21T00:46:49.225Z,17.50
2017-07-21T00:49:17.570Z,17.30
2017-07-21T00:51:45.889Z,17.30
2017-07-21T00:54:14.243Z,17.30
2017-07-21T00:56:42.570Z,17.30
2017-07-21T00:59:10.935Z,17.30
2017-07-21T01:01:39.267Z,17.30
2017-07-21T01:04:07.599Z,17.30
2017-07-21T01:06:35.971Z,17.30
2017-07-21T01:09:04.311Z,17.40
2017-07-21T01:11:32.668Z,17.20
2017-07-21T01:14:00.974Z,17.30
2017-07-21T01:16:29.334Z,17.20
2017-07-21T01:18:57.657Z,17.10
2017-07-21T01:21:25.999Z,17.10
2017-07-21T01:23:54.313Z,17.10
2017-07-21T01:26:22.663Z,17.00
2017-07-21T01:28:51.001Z,16.90
2017-07-21T01:31:19.349Z,16.80
2017-07-21T01:33:47.664Z,16.90
2017-07-21T01:36:16.015Z,16.90
2017-07-21T01:38:44.347Z,16.80
2017-07-21T01:41:12.675Z,16.80
2017-07-21T01:43:41.025Z,16.90
2017-07-21T01:46:09.346Z,16.80
2017-07-21T01:48:37.692Z,16.90
2017-07-21T01:51:06.041Z,17.00
2017-07-21T01:53:34.388Z,16.90
2017-07-21T01:56:02.710Z,16.80
2017-07-21T01:58:36.579Z,16.90
2017-07-21T02:01:04.931Z,16.80
2017-07-21T02:03:33.261Z,16.90
2017-07-21T02:06:01.618Z,16.70
2017-07-21T02:08:29.943Z,16.80
2017-07-21T02:11:06.665Z,16.90
2017-07-21T02:13:35.003Z,16.70
2017-07-21T02:16:03.345Z,16.80
2017-07-21T02:18:31.667Z,16.80
2017-07-21T02:21:00.105Z,16.90
2017-07-21T02:23:28.432Z,16.70
2017-07-21T02:25:56.897Z,16.80
2017-07-21T02:28:25.227Z,16.60
2017-07-21T02:30:53.585Z,16.70
2017-07-21T02:33:21.922Z,16.60
2017-07-21T02:35:50.263Z,16.70
2017-07-21T02:38:18.580Z,16.60
2017-07-21T02:40:46.922Z,16.60
2017-07-21T02:43:15.238Z,16.60
2017-07-21T02:45:43.609Z,16.60
2017-07-21T02:48:11.940Z,16.80
2017-07-21T02:50:40.257Z,17.00
2017-07-21T02:53:08.602Z,17.00
2017-07-21T02:55:36.945Z,17.00
2017-07-21T02:58:05.315Z,16.90
2017-07-21T03:00:33.642Z,16.90
2017-07-21T03:03:02.013Z,16.90
2017-07-21T03:05:30.322Z,16.60
2017-07-21T03:07:58.660Z,16.60
2017-07-21T03:10:26.998Z,16.70
2017-07-21T03:12:55.346Z,16.90
2017-07-21T03:15:23.660Z,16.90
2017-07-21T03:17:51.997Z,16.90
2017-07-21T03:20:20.315Z,16.90
2017-07-21T03:23:00.290Z,16.90
2017-07-21T03:25:28.617Z,16.90
2017-07-21T03:27:56.954Z,16.90
2017-07-21T03:30:25.272Z,16.90
2017-07-21T03:32:53.626Z,16.90
2017-07-21T03:35:21.956Z,16.90
2017-07-21T03:37:50.277Z,17.00
2017-07-21T03:40:18.653Z,17.00
2017-07-21T03:42:46.989Z,17.00
2017-07-21T03:45:15.345Z,16.80
2017-07-21T03:47:43.675Z,16.80
2017-07-21T03:50:12.323Z,16.80
2017-07-21T03:52:40.645Z,16.80
2017-07-21T03:55:09.256Z,17.00
2017-07-21T03:57:37.806Z,17.00
2017-07-21T04:00:06.141Z,17.00
2017-07-21T04:02:34.476Z,17.00
2017-07-21T04:05:02.837Z,17.10
2017-07-21T04:07:31.177Z,17.00
2017-07-21T04:09:59.551Z,17.00
2017-07-21T04:12:27.878Z,17.10
2017-07-21T04:14:56.207Z,17.10
2017-07-21T04:17:24.565Z,17.00
2017-07-21T04:19:52.902Z,17.00
2017-07-21T04:22:21.250Z,17.10
2017-07-21T04:24:49.580Z,17.10
2017-07-21T04:27:17.921Z,17.00
2017-07-21T04:29:46.266Z,17.00
2017-07-21T04:32:14.625Z,17.20
2017-07-21T04:34:42.945Z,17.30
2017-07-21T04:37:11.297Z,17.20
2017-07-21T04:39:39.629Z,17.00
2017-07-21T04:42:07.971Z,17.00
2017-07-21T04:44:36.288Z,17.10
2017-07-21T04:47:04.648Z,17.20
2017-07-21T04:49:32.989Z,17.20
2017-07-21T04:52:01.362Z,17.20
2017-07-21T04:54:29.717Z,17.30
2017-07-21T04:56:58.054Z,17.50
2017-07-21T04:59:26.412Z,17.60
2017-07-21T05:01:54.743Z,17.60
2017-07-21T05:04:23.098Z,17.70
2017-07-21T05:06:52.348Z,17.70
2017-07-21T05:09:20.689Z,17.70
2017-07-21T05:11:49.031Z,17.60
2017-07-21T05:14:17.373Z,17.50
2017-07-21T05:16:45.692Z,17.50
2017-07-21T05:19:14.025Z,17.60
2017-07-21T05:21:42.353Z,17.70
2017-07-21T05:24:10.706Z,17.80
2017-07-21T05:26:39.045Z,17.90
2017-07-21T05:29:07.362Z,18.00
2017-07-21T05:31:38.640Z,18.00
2017-07-21T05:34:06.956Z,18.20
2017-07-21T05:39:36.557Z,18.40
2017-07-21T05:42:26.165Z,18.60
2017-07-21T05:44:55.519Z,18.80
2017-07-21T05:47:23.894Z,19.10
2017-07-21T05:49:52.222Z,19.20
2017-07-21T05:52:25.979Z,19.40
2017-07-21T05:54:54.374Z,19.50
2017-07-21T05:57:23.682Z,19.70
2017-07-21T05:59:55.125Z,19.90
2017-07-21T06:02:23.524Z,20.10
2017-07-21T06:05:00.282Z,20.20
2017-07-21T06:07:29.602Z,20.40
2017-07-21T06:10:17.837Z,20.60
2017-07-21T06:12:46.254Z,20.80
2017-07-21T06:15:15.604Z,20.60
2017-07-21T06:17:44.994Z,20.70
2017-07-21T06:20:19.028Z,21.00
2017-07-21T06:22:47.347Z,21.10
2017-07-21T06:25:26.327Z,21.20
2017-07-21T06:27:56.621Z,21.10
2017-07-21T06:30:24.962Z,21.30
2017-07-21T06:32:53.284Z,21.40
2017-07-21T06:35:21.614Z,21.30
2017-07-21T06:37:49.936Z,21.50
2017-07-21T06:40:18.300Z,22.00
2017-07-21T06:42:46.609Z,22.20
2017-07-21T06:45:14.930Z,22.10
2017-07-21T06:47:43.279Z,22.30
2017-07-21T06:50:12.563Z,22.20
2017-07-21T06:52:41.019Z,22.30
2017-07-21T06:55:09.333Z,22.50
2017-07-21T06:57:37.673Z,22.90
2017-07-21T07:00:05.987Z,23.20
2017-07-21T07:02:34.362Z,23.40
2017-07-21T07:05:02.681Z,23.50
2017-07-21T07:07:31.086Z,24.00
2017-07-21T07:09:59.410Z,23.40
2017-07-21T07:12:27.743Z,23.80
2017-07-21T07:14:56.087Z,23.70
2017-07-21T07:17:24.402Z,24.10
2017-07-21T07:19:52.741Z,24.30
2017-07-21T07:22:21.193Z,24.50
2017-07-21T07:24:49.568Z,24.80
2017-07-21T07:27:17.888Z,25.10
2017-07-21T07:29:46.235Z,25.20
2017-07-21T07:32:14.555Z,24.90
2017-07-21T07:34:42.956Z,25.00
2017-07-21T07:37:11.268Z,25.40
2017-07-21T07:39:39.606Z,25.70
2017-07-21T07:42:08.028Z,25.90
2017-07-21T07:44:36.406Z,26.20
2017-07-21T07:47:04.723Z,26.40
2017-07-21T07:49:33.058Z,26.60
2017-07-21T07:52:01.386Z,26.50
2017-07-21T07:54:29.715Z,26.50
2017-07-21T07:56:58.054Z,26.10
2017-07-21T07:59:26.357Z,26.20
2017-07-21T08:01:54.705Z,26.60
2017-07-21T08:04:23.030Z,26.60
2017-07-21T08:06:51.378Z,26.90
2017-07-21T08:09:19.688Z,26.90
2017-07-21T08:11:48.025Z,27.40
2017-07-21T08:14:17.774Z,27.60
2017-07-21T08:16:46.105Z,27.40
2017-07-21T08:19:14.420Z,27.40
2017-07-21T08:21:42.757Z,27.30
2017-07-21T08:24:11.074Z,26.90
2017-07-21T08:26:39.437Z,27.20
2017-07-21T08:29:07.745Z,27.70
2017-07-21T08:31:36.064Z,28.00
2017-07-21T08:34:04.421Z,28.00
2017-07-21T08:36:32.741Z,27.80
2017-07-21T08:39:01.182Z,27.40
2017-07-21T08:41:48.643Z,27.60
2017-07-21T08:44:17.003Z,27.70
2017-07-21T08:46:45.313Z,28.00
2017-07-21T08:49:13.668Z,28.10
2017-07-21T08:51:42.003Z,28.00
2017-07-21T08:54:10.653Z,28.10
2017-07-21T08:56:38.967Z,28.10
2017-07-21T08:59:07.301Z,28.50
2017-07-21T09:01:35.625Z,28.70
2017-07-21T09:04:03.977Z,28.00
2017-07-21T09:06:32.291Z,28.40
2017-07-21T09:09:00.627Z,28.60
2017-07-21T09:11:28.947Z,27.60
2017-07-21T09:13:57.291Z,28.00
2017-07-21T09:16:25.615Z,28.50
2017-07-21T09:18:53.928Z,28.80
2017-07-21T09:21:23.166Z,28.80
2017-07-21T09:23:51.493Z,28.90
2017-07-21T09:26:19.819Z,28.90
2017-07-21T09:28:48.137Z,28.60
2017-07-21T09:31:16.490Z,28.50
2017-07-21T09:33:44.808Z,28.40
2017-07-21T09:36:13.148Z,28.30
2017-07-21T09:38:41.471Z,28.50
2017-07-21T09:41:09.812Z,28.70
2017-07-21T09:43:38.124Z,28.80
2017-07-21T09:46:06.468Z,28.60
2017-07-21T09:48:34.793Z,28.40
2017-07-21T09:51:03.130Z,28.30
2017-07-21T09:53:31.467Z,28.50
2017-07-21T09:55:59.798Z,28.50
2017-07-21T09:58:28.131Z,28.40
2017-07-21T10:00:57.362Z,28.70
2017-07-21T10:03:25.699Z,28.70
2017-07-21T10:05:54.016Z,28.90
2017-07-21T10:08:22.363Z,28.70
2017-07-21T10:10:50.677Z,28.90
2017-07-21T10:13:19.017Z,29.00
2017-07-21T10:15:47.364Z,28.80
2017-07-21T10:18:15.706Z,28.70
2017-07-21T10:20:44.020Z,28.60
2017-07-21T10:23:12.336Z,28.70
2017-07-21T10:25:40.689Z,28.50
2017-07-21T10:28:08.999Z,28.60
2017-07-21T10:30:37.357Z,28.60
2017-07-21T10:33:05.669Z,28.70
2017-07-21T10:35:34.018Z,28.10
2017-07-21T10:38:02.325Z,27.40
2017-07-21T10:40:30.709Z,27.50
2017-07-21T10:42:59.028Z,27.50
2017-07-21T10:45:27.357Z,27.90
2017-07-21T10:47:55.677Z,28.20
2017-07-21T10:50:24.028Z,28.60
2017-07-21T10:52:52.347Z,28.90
2017-07-21T10:55:20.687Z,28.70
2017-07-21T10:57:49.028Z,28.40
2017-07-21T11:00:18.264Z,26.90
2017-07-21T11:02:46.629Z,26.70
2017-07-21T11:05:14.978Z,26.90
2017-07-21T11:07:44.391Z,27.40
2017-07-21T11:10:13.959Z,27.70
2017-07-21T11:12:42.295Z,27.50
2017-07-21T11:15:10.600Z,27.60
2017-07-21T11:17:39.790Z,27.20
2017-07-21T11:20:08.119Z,28.30
2017-07-21T11:22:36.470Z,29.00
2017-07-21T11:25:04.773Z,29.20
2017-07-21T11:27:33.109Z,29.20
2017-07-21T11:30:01.440Z,29.40
2017-07-21T11:32:29.765Z,29.40
2017-07-21T11:34:58.109Z,29.80
2017-07-21T11:37:36.725Z,29.90
2017-07-21T11:40:05.056Z,29.50
2017-07-21T11:48:41.040Z,30.30
2017-07-21T11:51:09.366Z,30.10
2017-07-21T11:53:37.740Z,28.80
2017-07-21T11:56:06.085Z,28.80
2017-07-21T11:58:34.405Z,29.00
2017-07-21T12:01:02.862Z,28.10
2017-07-21T12:03:31.174Z,28.90
2017-07-21T12:06:22.268Z,29.40
2017-07-21T12:08:50.583Z,29.50
2017-07-21T12:11:18.917Z,29.80
2017-07-21T12:13:47.261Z,30.00
2017-07-21T12:16:15.601Z,30.00
2017-07-21T12:18:43.931Z,29.90
2017-07-21T12:21:12.278Z,29.50
2017-07-21T12:23:40.588Z,29.60
2017-07-21T12:26:08.933Z,29.80
2017-07-21T12:28:37.255Z,30.00
2017-07-21T12:31:05.585Z,30.00
2017-07-21T12:33:33.910Z,28.70
2017-07-21T12:36:02.375Z,27.50
2017-07-21T12:38:31.424Z,28.10
2017-07-21T12:40:59.915Z,28.70
2017-07-21T12:43:28.350Z,28.70
2017-07-21T12:45:56.672Z,27.90
2017-07-21T12:48:25.005Z,27.80
2017-07-21T12:50:53.433Z,28.30
2017-07-21T12:53:21.765Z,28.90
2017-07-21T12:55:50.077Z,29.40
2017-07-21T12:58:18.422Z,29.90
2017-07-21T13:00:46.758Z,29.90
2017-07-21T13:03:15.098Z,29.90
2017-07-21T13:05:43.409Z,30.00
2017-07-21T13:08:11.728Z,30.30
2017-07-21T13:10:40.066Z,30.40
2017-07-21T13:13:08.397Z,30.80
2017-07-21T13:15:37.660Z,30.80
2017-07-21T13:18:05.974Z,30.60
2017-07-21T13:20:34.311Z,29.60
2017-07-21T13:23:03.534Z,28.40
2017-07-21T13:25:31.877Z,28.30
2017-07-21T13:28:00.201Z,28.60
2017-07-21T13:30:28.533Z,28.20
2017-07-21T13:32:56.857Z,28.40
2017-07-21T13:35:25.220Z,28.60
2017-07-21T13:37:53.538Z,28.60
2017-07-21T13:40:21.884Z,28.40
2017-07-21T13:42:50.205Z,28.90
2017-07-21T13:45:18.516Z,29.30
2017-07-21T13:47:46.868Z,29.50
2017-07-21T13:50:15.210Z,29.60
2017-07-21T13:52:43.574Z,29.50
2017-07-21T13:55:11.935Z,29.70
2017-07-21T13:57:40.306Z,29.90
2017-07-21T14:00:08.661Z,29.60
2017-07-21T14:02:37.028Z,29.80
2017-07-21T14:05:05.342Z,29.80
2017-07-21T14:07:33.766Z,29.40
2017-07-21T14:10:02.115Z,29.20
2017-07-21T14:12:30.465Z,29.30
2017-07-21T14:14:58.808Z,28.70
2017-07-21T14:17:27.204Z,28.30
2017-07-21T14:19:55.548Z,28.70
2017-07-21T14:22:23.928Z,28.70
2017-07-21T14:24:52.254Z,27.90
2017-07-21T14:27:20.590Z,28.70
2017-07-21T14:29:48.978Z,29.20
2017-07-21T14:32:17.356Z,29.30
2017-07-21T14:34:45.773Z,29.50
2017-07-21T14:37:14.234Z,29.50
2017-07-21T14:39:42.945Z,29.30
2017-07-21T14:42:11.289Z,28.80
2017-07-21T14:44:39.630Z,28.70
2017-07-21T14:47:07.953Z,29.10
2017-07-21T14:49:36.302Z,29.30
2017-07-21T14:52:04.717Z,29.70
2017-07-21T14:54:33.082Z,29.00
2017-07-21T14:57:01.626Z,27.90
2017-07-21T14:59:29.973Z,28.40
2017-07-21T15:01:58.289Z,28.80
2017-07-21T15:04:26.633Z,28.60
2017-07-21T15:06:54.948Z,28.80
2017-07-21T15:09:24.177Z,28.70
2017-07-21T15:11:52.504Z,28.40
2017-07-21T15:14:20.819Z,28.10
2017-07-21T15:16:49.156Z,28.00
2017-07-21T15:19:17.509Z,27.80
2017-07-21T15:21:45.874Z,27.40
2017-07-21T15:24:14.194Z,27.60
2017-07-21T15:26:42.547Z,28.00
2017-07-21T15:29:10.875Z,28.50
2017-07-21T15:31:39.213Z,28.50
2017-07-21T15:34:07.539Z,28.30
2017-07-21T15:36:35.868Z,28.50
2017-07-21T15:39:04.196Z,28.70
2017-07-21T15:41:32.558Z,28.70
2017-07-21T15:44:00.893Z,28.80
2017-07-21T15:46:29.208Z,28.50
2017-07-21T15:48:57.553Z,28.40
2017-07-21T15:51:25.861Z,28.00
2017-07-21T15:53:54.193Z,27.90
2017-07-21T15:56:22.509Z,28.40
2017-07-21T15:58:50.865Z,28.70
2017-07-21T16:01:19.195Z,28.70
2017-07-21T16:03:47.558Z,28.30
2017-07-21T16:06:15.877Z,27.80
2017-07-21T16:08:44.217Z,27.70
2017-07-21T16:11:13.453Z,27.60
2017-07-21T16:13:41.841Z,27.90
2017-07-21T16:16:10.154Z,27.90
2017-07-21T16:18:38.475Z,28.10
2017-07-21T16:21:06.841Z,28.30
2017-07-21T16:23:35.346Z,28.20
2017-07-21T16:26:03.685Z,28.30
2017-07-21T16:28:32.011Z,28.30
2017-07-21T16:31:00.354Z,27.60
2017-07-21T16:33:29.586Z,27.80
2017-07-21T16:35:57.917Z,27.50
2017-07-21T16:38:26.242Z,27.80
2017-07-21T16:40:54.603Z,28.00
2017-07-21T16:43:22.924Z,28.30
2017-07-21T16:45:51.264Z,28.10
2017-07-21T16:48:19.587Z,27.70
2017-07-21T16:50:47.935Z,27.20
2017-07-21T16:53:16.251Z,27.40
2017-07-21T16:55:44.565Z,27.60
2017-07-21T16:58:12.904Z,27.50
2017-07-21T17:00:41.217Z,27.40
2017-07-21T17:03:09.580Z,27.50
2017-07-21T17:05:37.906Z,27.50
2017-07-21T17:08:06.241Z,27.80
2017-07-21T17:10:34.558Z,27.70
2017-07-21T17:13:03.830Z,27.80
2017-07-21T17:15:32.157Z,27.70
2017-07-21T17:18:00.499Z,27.50
2017-07-21T17:20:28.836Z,27.50
2017-07-21T17:22:57.170Z,27.30
2017-07-21T17:25:25.480Z,27.40
2017-07-21T17:27:53.834Z,27.40
2017-07-21T17:30:22.158Z,27.50
2017-07-21T17:32:50.480Z,27.50
2017-07-21T17:35:18.873Z,27.20
2017-07-21T17:37:47.184Z,27.30
2017-07-21T17:40:15.522Z,27.20
2017-07-21T17:42:43.834Z,27.20
2017-07-21T17:45:12.176Z,27.20
2017-07-21T17:47:40.486Z,27.20
2017-07-21T17:50:08.824Z,27.20
2017-07-21T17:52:37.147Z,27.30
2017-07-21T17:55:05.494Z,27.40
2017-07-21T17:57:33.816Z,27.20
2017-07-21T18:00:02.159Z,27.10
2017-07-21T18:02:30.498Z,27.20
2017-07-21T18:04:58.833Z,26.80
2017-07-21T18:07:27.144Z,27.00
2017-07-21T18:09:55.484Z,27.00
2017-07-21T18:12:23.788Z,26.90
2017-07-21T18:14:52.125Z,27.00
2017-07-21T18:17:20.436Z,27.10
2017-07-21T18:19:48.841Z,26.80
2017-07-21T18:22:17.161Z,26.80
2017-07-21T18:24:45.478Z,26.90
2017-07-21T18:27:13.822Z,27.00
2017-07-21T18:29:42.330Z,26.90
2017-07-21T18:32:10.666Z,26.80
2017-07-21T18:34:38.991Z,26.80
2017-07-21T18:37:07.328Z,26.80
2017-07-21T18:39:36.622Z,26.80
2017-07-21T18:42:04.964Z,26.90
2017-07-21T18:44:33.322Z,26.80
2017-07-21T18:47:01.669Z,26.90
2017-07-21T18:49:30.002Z,26.60
2017-07-21T18:51:58.341Z,26.70
2017-07-21T18:54:27.575Z,26.80
2017-07-21T18:56:55.925Z,26.80
2017-07-21T18:59:24.237Z,26.80
2017-07-21T19:01:52.545Z,26.90
2017-07-21T19:04:20.908Z,26.80
2017-07-21T19:06:49.230Z,26.60
2017-07-21T19:09:18.480Z,26.60
2017-07-21T19:11:46.793Z,26.40
2017-07-21T19:14:15.156Z,26.20
2017-07-21T19:16:43.487Z,26.20
2017-07-21T19:19:11.825Z,26.10
2017-07-21T19:21:40.133Z,26.00
2017-07-21T19:24:09.398Z,26.10
2017-07-21T19:26:37.748Z,25.90
2017-07-21T19:29:06.064Z,25.80
2017-07-21T19:31:35.351Z,25.70
2017-07-21T19:34:03.678Z,25.70
2017-07-21T19:36:32.090Z,25.60
2017-07-21T19:39:01.410Z,25.60
2017-07-21T19:41:29.782Z,25.60
2017-07-21T19:43:58.101Z,25.60
2017-07-21T19:46:26.445Z,25.60
2017-07-21T19:48:55.688Z,25.60
2017-07-21T19:51:24.126Z,25.20
2017-07-21T19:53:52.460Z,25.00
2017-07-21T19:56:20.819Z,24.70
2017-07-21T19:58:49.145Z,24.60
2017-07-21T20:01:17.502Z,24.40
2017-07-21T20:03:45.820Z,24.40
2017-07-21T20:06:14.128Z,24.50
2017-07-21T20:08:42.473Z,24.50
2017-07-21T20:11:10.833Z,24.50
2017-07-21T20:13:39.165Z,24.50
2017-07-21T20:16:07.483Z,24.40
2017-07-21T20:18:35.866Z,24.50
2017-07-21T20:21:04.194Z,24.50
2017-07-21T20:23:32.566Z,24.40
2017-07-21T20:26:00.889Z,24.10
2017-07-21T20:28:29.241Z,24.00
2017-07-21T20:30:58.494Z,24.00
2017-07-21T20:33:26.837Z,23.90
2017-07-21T20:35:55.177Z,23.80
2017-07-21T20:38:23.497Z,23.70
2017-07-21T20:40:51.838Z,23.70
2017-07-21T20:43:20.157Z,23.50
2017-07-21T20:45:48.498Z,23.50
2017-07-21T20:48:16.816Z,23.40
2017-07-21T20:50:45.150Z,23.10
2017-07-21T20:53:13.476Z,23.00
2017-07-21T20:55:41.812Z,22.80
2017-07-21T20:58:10.117Z,22.80
2017-07-21T21:00:38.467Z,22.70
2017-07-21T21:03:06.790Z,22.90
2017-07-21T21:05:35.126Z,23.00
2017-07-21T21:08:03.443Z,23.20
2017-07-21T21:10:31.769Z,23.20
2017-07-21T21:13:00.093Z,23.20
2017-07-21T21:15:28.440Z,23.00
2017-07-21T21:17:56.746Z,23.00
2017-07-21T21:20:25.061Z,23.00
2017-07-21T21:22:53.409Z,23.00
2017-07-21T21:25:21.730Z,22.90
2017-07-21T21:27:50.085Z,22.80
2017-07-21T21:30:18.397Z,22.90
2017-07-21T21:32:46.748Z,23.00
2017-07-21T21:35:15.104Z,23.00
2017-07-21T21:37:43.445Z,23.00
2017-07-21T21:40:11.756Z,23.00
2017-07-21T21:42:40.098Z,22.90
2017-07-21T21:45:08.407Z,22.80
2017-07-21T21:47:36.757Z,22.50
2017-07-21T21:50:05.077Z,22.30
2017-07-21T21:52:33.405Z,22.10
2017-07-21T21:55:01.793Z,21.70
2017-07-21T21:57:30.132Z,21.60
2017-07-21T21:59:58.449Z,22.00
2017-07-21T22:02:26.768Z,22.30
2017-07-21T22:04:55.107Z,22.40
2017-07-21T22:07:23.429Z,22.50
2017-07-21T22:09:51.804Z,22.40
2017-07-21T22:12:20.110Z,22.40
2017-07-21T22:14:48.448Z,22.50
2017-07-21T22:17:16.770Z,22.50
2017-07-21T22:19:45.118Z,22.40
2017-07-21T22:22:13.470Z,22.20
2017-07-21T22:24:41.845Z,22.00
2017-07-21T22:27:10.158Z,21.90
2017-07-21T22:29:38.520Z,22.10
2017-07-21T22:32:06.834Z,22.20
2017-07-21T22:34:35.181Z,22.20
2017-07-21T22:37:03.501Z,22.20
2017-07-21T22:39:31.942Z,22.20
2017-07-21T22:42:00.281Z,22.20
2017-07-21T22:44:28.596Z,22.10
2017-07-21T22:46:56.936Z,22.20
2017-07-21T22:49:25.245Z,22.20
2017-07-21T22:51:53.580Z,22.20
2017-07-21T22:54:21.892Z,22.20
2017-07-21T22:56:50.242Z,22.10
2017-07-21T22:59:18.564Z,22.00
2017-07-21T23:01:46.900Z,21.90
2017-07-21T23:04:15.219Z,21.90
2017-07-21T23:06:43.563Z,21.90
2017-07-21T23:09:11.882Z,21.90
2017-07-21T23:11:40.231Z,21.90
2017-07-21T23:14:08.560Z,21.60
2017-07-21T23:16:36.873Z,21.50
2017-07-21T23:19:05.203Z,21.40
2017-07-21T23:21:33.533Z,21.30
2017-07-21T23:24:01.865Z,21.30
2017-07-21T23:26:30.191Z,21.20
2017-07-21T23:28:58.518Z,21.20
2017-07-21T23:31:26.834Z,21.10
2017-07-21T23:33:55.173Z,21.00
2017-07-21T23:36:23.493Z,20.60
2017-07-21T23:38:51.829Z,20.50
2017-07-21T23:41:20.137Z,20.40
2017-07-21T23:43:48.521Z,20.40
2017-07-21T23:46:16.873Z,20.40
2017-07-21T23:48:45.218Z,20.30
2017-07-21T23:51:13.549Z,20.30
2017-07-21T23:53:41.876Z,20.20
2017-07-21T23:56:10.205Z,20.20
2017-07-21T23:58:38.538Z,20.20
